createdAt,value
2022-12-25T00:00:45.437Z,24.53
2022-12-25T00:03:14.139Z,25.53
2022-12-25T00:05:43.916Z,24.33
2022-12-25T00:08:12.578Z,25.10
2022-12-25T00:10:45.331Z,26.47
2022-12-25T00:13:14.483Z,26.60
2022-12-25T00:15:44.616Z,42.20
2022-12-25T00:18:13.222Z,34.50
2022-12-25T00:20:41.839Z,33.73
2022-12-25T00:23:10.339Z,36.83
2022-12-25T00:25:40.986Z,33.40
2022-12-25T00:28:09.461Z,32.13
2022-12-25T00:30:41.160Z,33.93
2022-12-25T00:33:11.141Z,33.67
2022-12-25T00:35:39.604Z,31.57
2022-12-25T00:38:08.320Z,31.67
2022-12-25T00:40:44.214Z,27.10
2022-12-25T00:43:13.373Z,27.70
2022-12-25T00:45:42.011Z,26.93
2022-12-25T00:48:12.089Z,28.80
2022-12-25T00:50:40.639Z,29.33
2022-12-25T00:53:09.109Z,28.13
2022-12-25T00:55:37.791Z,26.83
2022-12-25T00:58:06.305Z,27.57
2022-12-25T01:00:34.886Z,26.50
2022-12-25T01:03:03.564Z,27.23
2022-12-25T01:05:33.656Z,26.73
2022-12-25T01:08:02.192Z,27.30
2022-12-25T01:10:29.673Z,29.10
2022-12-25T01:12:58.329Z,30.53
2022-12-25T01:15:27.108Z,31.07
2022-12-25T01:17:55.606Z,35.70
2022-12-25T01:20:24.133Z,36.83
2022-12-25T01:22:54.465Z,34.77
2022-12-25T01:25:23.039Z,37.37
2022-12-25T01:27:51.588Z,35.10
2022-12-25T01:30:20.959Z,36.10
2022-12-25T01:32:49.499Z,37.07
2022-12-25T01:35:18.048Z,36.20
2022-12-25T01:37:46.587Z,34.87
2022-12-25T01:40:16.595Z,36.43
2022-12-25T01:42:45.282Z,36.43
2022-12-25T01:45:37.937Z,35.20
2022-12-25T01:48:14.273Z,37.47
2022-12-25T01:50:46.751Z,35.00
2022-12-25T01:53:15.835Z,35.10
2022-12-25T01:55:47.506Z,35.47
2022-12-25T01:58:16.553Z,35.00
2022-12-25T02:00:45.673Z,33.70
2022-12-25T02:03:15.005Z,34.43
2022-12-25T02:05:43.871Z,35.03
2022-12-25T02:08:14.528Z,33.37
2022-12-25T02:10:44.817Z,32.63
2022-12-25T02:13:16.738Z,32.97
2022-12-25T02:15:56.324Z,31.40
2022-12-25T02:18:34.868Z,30.93
2022-12-25T02:21:26.544Z,32.13
2022-12-25T02:24:20.057Z,30.70
2022-12-25T02:27:06.002Z,30.07
2022-12-25T02:29:43.640Z,30.63
2022-12-25T02:32:20.731Z,29.00
2022-12-25T02:34:54.424Z,28.53
2022-12-25T02:37:28.741Z,26.93
2022-12-25T02:40:03.422Z,26.67
2022-12-25T02:43:05.004Z,24.80
2022-12-25T02:45:54.928Z,24.90
2022-12-25T02:48:43.027Z,25.00
2022-12-25T02:51:33.415Z,23.80
2022-12-25T02:54:22.164Z,24.03
2022-12-25T02:57:11.121Z,22.87
2022-12-25T02:59:59.531Z,24.70
2022-12-25T03:02:52.164Z,23.87
2022-12-25T03:05:41.672Z,24.40
2022-12-25T03:08:14.869Z,23.93
2022-12-25T03:11:07.211Z,24.33
2022-12-25T03:13:38.964Z,25.40
2022-12-25T03:16:26.677Z,25.07
2022-12-25T03:18:58.951Z,24.17
2022-12-25T03:21:44.298Z,24.73
2022-12-25T03:24:29.980Z,24.03
2022-12-25T03:26:59.194Z,24.40
2022-12-25T03:29:49.180Z,22.50
2022-12-25T03:32:26.535Z,23.70
2022-12-25T03:35:20.583Z,25.00
2022-12-25T03:38:24.504Z,24.10
2022-12-25T03:41:20.296Z,23.67
2022-12-25T03:44:12.806Z,24.23
2022-12-25T03:47:05.667Z,22.40
2022-12-25T03:49:58.430Z,24.23
2022-12-25T03:52:47.962Z,18.80
2022-12-25T03:55:35.882Z,18.37
2022-12-25T03:58:22.105Z,18.90
2022-12-25T04:01:07.920Z,27.67
2022-12-25T04:03:54.106Z,21.43
2022-12-25T04:06:40.334Z,16.93
2022-12-25T04:09:27.792Z,16.97
2022-12-25T04:12:13.741Z,16.90
2022-12-25T04:15:00.107Z,16.97
2022-12-25T04:17:46.315Z,17.17
2022-12-25T04:20:32.554Z,17.27
2022-12-25T04:23:18.450Z,16.33
2022-12-25T04:26:06.332Z,16.27
2022-12-25T04:28:52.498Z,16.23
2022-12-25T04:31:39.977Z,16.70
2022-12-25T04:34:26.024Z,15.30
2022-12-25T04:36:54.591Z,17.10
2022-12-25T04:39:23.277Z,16.50
2022-12-25T04:41:53.295Z,17.67
2022-12-25T04:44:21.848Z,16.20
2022-12-25T04:46:50.581Z,16.00
2022-12-25T04:49:19.182Z,16.33
2022-12-25T04:51:47.803Z,16.57
2022-12-25T04:54:16.350Z,16.33
2022-12-25T04:56:46.041Z,15.60
2022-12-25T04:59:16.283Z,16.77
2022-12-25T05:01:44.890Z,17.63
2022-12-25T05:04:13.477Z,17.30
2022-12-25T05:06:42.052Z,17.13
2022-12-25T05:09:11.838Z,18.30
2022-12-25T05:11:40.391Z,17.43
2022-12-25T05:14:08.970Z,16.90
2022-12-25T05:16:41.583Z,15.83
2022-12-25T05:19:10.259Z,16.73
2022-12-25T05:21:38.870Z,16.57
2022-12-25T05:24:10.153Z,16.57
2022-12-25T05:26:38.824Z,17.27
2022-12-25T05:29:08.042Z,17.37
2022-12-25T05:31:36.763Z,17.23
2022-12-25T05:34:06.795Z,16.80
2022-12-25T05:36:35.351Z,17.63
2022-12-25T05:39:03.895Z,16.63
2022-12-25T05:41:34.665Z,16.20
2022-12-25T05:44:03.764Z,15.40
2022-12-25T05:46:32.368Z,15.13
2022-12-25T05:49:00.943Z,14.20
2022-12-25T05:51:30.989Z,13.33
2022-12-25T05:53:59.744Z,12.47
2022-12-25T05:56:28.380Z,12.43
2022-12-25T05:58:57.081Z,12.00
2022-12-25T06:01:28.556Z,13.07
2022-12-25T06:03:58.099Z,12.30
2022-12-25T06:06:26.776Z,12.23
2022-12-25T06:08:57.316Z,11.67
2022-12-25T06:11:26.936Z,12.53
2022-12-25T06:13:55.853Z,12.80
2022-12-25T06:16:24.473Z,12.73
2022-12-25T06:18:53.314Z,12.67
2022-12-25T06:21:21.923Z,13.77
2022-12-25T06:23:52.101Z,15.83
2022-12-25T06:26:22.238Z,13.70
2022-12-25T06:28:50.786Z,13.07
2022-12-25T06:31:21.365Z,12.80
2022-12-25T06:33:50.442Z,12.80
2022-12-25T06:36:20.435Z,13.13
2022-12-25T06:38:49.404Z,12.30
2022-12-25T06:41:19.769Z,12.80
2022-12-25T06:43:51.622Z,12.67
2022-12-25T06:46:21.341Z,12.77
2022-12-25T06:48:50.394Z,12.17
2022-12-25T06:51:19.485Z,13.40
2022-12-25T06:53:48.332Z,13.57
2022-12-25T06:56:19.018Z,15.80
2022-12-25T06:58:49.589Z,15.83
2022-12-25T07:01:22.686Z,14.93
2022-12-25T07:03:53.449Z,15.47
2022-12-25T07:06:22.057Z,15.63
2022-12-25T07:08:50.619Z,22.87
2022-12-25T07:11:19.220Z,26.80
2022-12-25T07:13:47.949Z,26.80
2022-12-25T07:16:17.081Z,21.17
2022-12-25T07:18:47.032Z,24.83
2022-12-25T07:21:17.433Z,30.33
2022-12-25T07:23:47.519Z,22.33
2022-12-25T07:26:17.425Z,23.87
2022-12-25T07:28:48.358Z,21.37
2022-12-25T07:31:20.398Z,22.63
2022-12-25T07:33:50.438Z,21.10
2022-12-25T07:36:19.056Z,18.27
2022-12-25T07:38:50.687Z,16.87
2022-12-25T07:41:19.335Z,17.80
2022-12-25T07:43:51.307Z,18.13
2022-12-25T07:46:19.883Z,19.73
2022-12-25T07:48:50.054Z,18.33
2022-12-25T07:51:19.067Z,16.67
2022-12-25T07:53:48.026Z,15.53
2022-12-25T07:56:18.749Z,14.83
2022-12-25T07:58:48.490Z,14.77
2022-12-25T08:01:20.325Z,13.90
2022-12-25T08:03:52.996Z,14.30
2022-12-25T08:06:22.548Z,14.53
2022-12-25T08:08:52.307Z,14.30
2022-12-25T08:11:20.880Z,14.27
2022-12-25T08:13:49.652Z,14.03
2022-12-25T08:16:18.176Z,14.67
2022-12-25T08:18:46.759Z,14.23
2022-12-25T08:21:17.402Z,13.70
2022-12-25T08:23:47.590Z,14.23
2022-12-25T08:26:18.770Z,16.93
2022-12-25T08:28:48.070Z,14.90
2022-12-25T08:31:22.038Z,15.80
2022-12-25T08:33:54.489Z,16.10
2022-12-25T08:36:25.063Z,16.90
2022-12-25T08:39:00.291Z,16.10
2022-12-25T08:41:31.390Z,15.43
2022-12-25T08:44:00.047Z,15.60
2022-12-25T08:46:28.759Z,16.13
2022-12-25T08:48:57.655Z,16.67
2022-12-25T08:51:28.271Z,15.17
2022-12-25T08:54:01.612Z,15.80
2022-12-25T08:56:30.464Z,15.60
2022-12-25T08:59:01.407Z,16.93
2022-12-25T09:01:30.542Z,17.57
2022-12-25T09:03:59.494Z,16.40
2022-12-25T09:06:29.447Z,19.13
2022-12-25T09:08:58.018Z,18.17
2022-12-25T09:11:28.482Z,18.30
2022-12-25T09:13:57.051Z,18.00
2022-12-25T09:16:25.753Z,18.10
2022-12-25T09:19:04.241Z,17.87
2022-12-25T09:21:36.954Z,17.47
2022-12-25T09:24:06.054Z,20.70
2022-12-25T09:26:34.578Z,18.80
2022-12-25T09:29:03.208Z,19.40
2022-12-25T09:31:31.846Z,19.67
2022-12-25T09:34:00.389Z,19.23
2022-12-25T09:36:28.988Z,18.87
2022-12-25T09:39:00.009Z,16.73
2022-12-25T09:41:32.034Z,17.03
2022-12-25T09:44:05.208Z,16.40
2022-12-25T09:46:41.035Z,17.70
2022-12-25T09:49:20.156Z,18.33
2022-12-25T09:51:53.460Z,18.43
2022-12-25T09:54:30.142Z,19.37
2022-12-25T09:56:59.167Z,18.77
2022-12-25T09:59:28.456Z,19.30
2022-12-25T10:02:21.515Z,21.17
2022-12-25T10:05:02.792Z,20.30
2022-12-25T10:07:38.387Z,20.23
2022-12-25T10:10:24.929Z,20.20
2022-12-25T10:13:02.892Z,20.83
2022-12-25T10:15:39.297Z,20.00
2022-12-25T10:18:39.477Z,21.13
2022-12-25T10:21:13.806Z,20.20
2022-12-25T10:23:45.389Z,20.43
2022-12-25T10:26:18.751Z,22.53
2022-12-25T10:28:52.557Z,22.97
2022-12-25T10:31:23.528Z,21.27
2022-12-25T10:33:54.110Z,22.43
2022-12-25T10:36:24.768Z,22.47
2022-12-25T10:38:53.876Z,22.60
2022-12-25T10:41:36.976Z,21.93
2022-12-25T10:44:15.445Z,22.00
2022-12-25T10:46:49.147Z,22.13
2022-12-25T10:49:20.865Z,22.10
2022-12-25T10:51:49.677Z,22.13
2022-12-25T10:54:23.928Z,21.87
2022-12-25T10:56:59.284Z,24.43
2022-12-25T10:59:29.048Z,24.00
2022-12-25T11:02:04.951Z,25.57
2022-12-25T11:04:36.915Z,28.33
2022-12-25T11:07:08.790Z,27.20
2022-12-25T11:09:37.544Z,27.20
2022-12-25T11:12:08.398Z,29.40
2022-12-25T11:14:37.001Z,27.17
2022-12-25T11:17:12.342Z,26.83
2022-12-25T11:19:40.928Z,25.63
2022-12-25T11:22:19.800Z,28.00
2022-12-25T11:24:48.529Z,25.77
2022-12-25T11:27:25.630Z,24.93
2022-12-25T11:29:57.894Z,24.40
2022-12-25T11:32:30.766Z,21.93
2022-12-25T11:35:00.619Z,21.97
2022-12-25T11:37:35.350Z,22.23
2022-12-25T11:40:04.387Z,23.57
2022-12-25T11:42:38.469Z,23.37
2022-12-25T11:45:13.477Z,23.47
2022-12-25T11:47:46.134Z,22.27
2022-12-25T11:50:23.556Z,22.53
2022-12-25T11:52:54.556Z,22.73
2022-12-25T11:55:31.470Z,22.07
2022-12-25T11:58:07.283Z,23.53
2022-12-25T12:00:37.461Z,24.43
2022-12-25T12:03:13.740Z,22.53
2022-12-25T12:05:47.282Z,22.13
2022-12-25T12:08:15.933Z,20.47
2022-12-25T12:11:00.498Z,22.40
2022-12-25T12:13:45.639Z,21.87
2022-12-25T12:16:14.316Z,22.47
2022-12-25T12:18:49.767Z,23.90
2022-12-25T12:21:24.449Z,24.20
2022-12-25T12:23:57.586Z,23.83
2022-12-25T12:26:29.299Z,22.63
2022-12-25T12:29:02.297Z,24.43
2022-12-25T12:31:41.329Z,25.13
2022-12-25T12:34:24.417Z,25.70
2022-12-25T12:37:01.961Z,26.60
2022-12-25T12:39:36.580Z,28.07
2022-12-25T12:42:15.661Z,29.50
2022-12-25T12:44:46.899Z,30.00
2022-12-25T12:47:30.601Z,29.67
2022-12-25T12:50:00.394Z,26.67
2022-12-25T12:52:34.825Z,27.13
2022-12-25T12:55:05.526Z,26.73
2022-12-25T12:57:39.375Z,26.77
2022-12-25T13:00:17.327Z,26.67
2022-12-25T13:03:29.576Z,26.37
2022-12-25T13:06:02.217Z,26.13
2022-12-25T13:08:44.633Z,25.80
2022-12-25T13:11:17.656Z,26.00
2022-12-25T13:13:47.257Z,25.10
2022-12-25T13:16:24.492Z,27.33
2022-12-25T13:18:55.408Z,26.73
2022-12-25T13:21:25.927Z,25.40
2022-12-25T13:23:59.270Z,25.27
2022-12-25T13:26:28.820Z,25.90
2022-12-25T13:28:57.736Z,24.33
2022-12-25T13:31:29.342Z,24.00
2022-12-25T13:34:00.949Z,23.80
2022-12-25T13:36:31.539Z,23.77
2022-12-25T13:39:00.872Z,23.33
2022-12-25T13:41:53.189Z,24.03
2022-12-25T13:44:25.291Z,23.37
2022-12-25T13:46:55.478Z,21.60
2022-12-25T13:49:25.644Z,22.83
2022-12-25T13:52:11.840Z,22.03
2022-12-25T13:54:40.507Z,21.70
2022-12-25T13:57:13.607Z,21.93
2022-12-25T13:59:46.006Z,22.37
2022-12-25T14:02:21.329Z,22.50
2022-12-25T14:04:49.989Z,20.30
2022-12-25T14:07:23.361Z,19.67
2022-12-25T14:09:55.104Z,18.60
2022-12-25T14:12:25.179Z,18.23
2022-12-25T14:14:55.076Z,19.00
2022-12-25T14:17:25.854Z,19.50
2022-12-25T14:20:07.936Z,18.17
2022-12-25T14:22:38.678Z,19.13
2022-12-25T14:25:16.736Z,18.77
2022-12-25T14:27:51.086Z,19.83
2022-12-25T14:30:20.358Z,21.10
2022-12-25T14:32:52.103Z,22.47
2022-12-25T14:35:23.731Z,24.63
2022-12-25T14:38:00.276Z,24.67
2022-12-25T14:40:31.683Z,26.77
2022-12-25T14:43:02.529Z,24.57
2022-12-25T14:45:33.899Z,23.17
2022-12-25T14:48:22.861Z,22.73
2022-12-25T14:50:59.670Z,21.13
2022-12-25T14:53:36.915Z,21.70
2022-12-25T14:56:06.295Z,21.23
2022-12-25T14:58:40.992Z,22.13
2022-12-25T15:01:20.147Z,23.90
2022-12-25T15:03:50.614Z,22.17
2022-12-25T15:06:21.145Z,22.70
2022-12-25T15:08:58.267Z,23.27
2022-12-25T15:11:27.347Z,22.93
2022-12-25T15:13:56.798Z,22.63
2022-12-25T15:16:27.204Z,23.83
2022-12-25T15:19:00.596Z,22.53
2022-12-25T15:21:30.821Z,24.17
2022-12-25T15:24:00.773Z,22.73
2022-12-25T15:26:31.358Z,24.53
2022-12-25T15:29:00.387Z,26.20
2022-12-25T15:31:30.587Z,28.40
2022-12-25T15:34:02.783Z,28.77
2022-12-25T15:36:32.022Z,28.60
2022-12-25T15:39:04.192Z,28.70
2022-12-25T15:41:53.569Z,28.70
2022-12-25T15:44:23.112Z,30.10
2022-12-25T15:46:51.901Z,27.50
2022-12-25T15:49:22.170Z,26.47
2022-12-25T15:51:50.870Z,26.40
2022-12-25T15:54:19.689Z,27.90
2022-12-25T15:56:50.222Z,25.07
2022-12-25T15:59:20.181Z,25.17
2022-12-25T16:01:51.188Z,25.10
2022-12-25T16:04:21.899Z,25.70
2022-12-25T16:06:51.118Z,24.67
2022-12-25T16:09:21.405Z,24.93
2022-12-25T16:11:50.923Z,25.27
2022-12-25T16:14:20.247Z,25.07
2022-12-25T16:16:48.972Z,25.17
2022-12-25T16:19:17.679Z,25.43
2022-12-25T16:21:48.617Z,26.30
2022-12-25T16:24:17.780Z,26.27
2022-12-25T16:26:46.485Z,26.27
2022-12-25T16:29:15.170Z,26.20
2022-12-25T16:31:43.966Z,31.23
2022-12-25T16:34:12.785Z,32.67
2022-12-25T16:36:41.484Z,34.83
2022-12-25T16:39:11.577Z,35.40
2022-12-25T16:41:40.209Z,37.00
2022-12-25T16:44:11.280Z,34.70
2022-12-25T16:46:41.632Z,32.77
2022-12-25T16:49:10.367Z,32.90
2022-12-25T16:51:39.153Z,34.37
2022-12-25T16:54:08.841Z,35.77
2022-12-25T16:56:38.920Z,37.87
2022-12-25T16:59:07.584Z,34.03
2022-12-25T17:01:36.309Z,32.43
2022-12-25T17:04:05.369Z,30.97
2022-12-25T17:06:34.084Z,36.93
2022-12-25T17:09:03.784Z,36.30
2022-12-25T17:11:33.201Z,51.53
2022-12-25T17:14:05.381Z,52.50
2022-12-25T17:16:36.337Z,44.03
2022-12-25T17:19:08.268Z,43.87
2022-12-25T17:21:38.479Z,38.70
2022-12-25T17:24:08.112Z,38.30
2022-12-25T17:26:36.990Z,43.47
2022-12-25T17:29:07.064Z,44.57
2022-12-25T17:31:36.245Z,43.67
2022-12-25T17:34:06.031Z,43.27
2022-12-25T17:36:35.210Z,41.60
2022-12-25T17:39:06.810Z,44.53
2022-12-25T17:41:35.861Z,46.00
2022-12-25T17:44:04.906Z,45.40
2022-12-25T17:46:35.451Z,40.40
2022-12-25T17:49:04.927Z,38.77
2022-12-25T17:51:33.567Z,38.97
2022-12-25T17:54:04.236Z,37.87
2022-12-25T17:56:34.684Z,38.40
2022-12-25T17:59:06.903Z,39.27
2022-12-25T18:01:40.085Z,41.13
2022-12-25T18:04:08.873Z,43.17
2022-12-25T18:06:38.035Z,42.87
2022-12-25T18:09:07.456Z,44.00
2022-12-25T18:11:38.948Z,46.63
2022-12-25T18:14:10.129Z,43.80
2022-12-25T18:16:42.235Z,43.10
2022-12-25T18:19:11.789Z,44.10
2022-12-25T18:21:42.988Z,46.00
2022-12-25T18:24:14.084Z,46.70
2022-12-25T18:26:42.806Z,46.57
2022-12-25T18:29:11.353Z,42.77
2022-12-25T18:31:41.890Z,41.33
2022-12-25T18:34:10.797Z,41.20
2022-12-25T18:36:39.557Z,41.00
2022-12-25T18:39:08.496Z,40.40
2022-12-25T18:41:57.320Z,41.40
2022-12-25T18:44:25.951Z,44.70
2022-12-25T18:46:55.967Z,47.40
2022-12-25T18:49:24.757Z,46.17
2022-12-25T18:51:53.530Z,45.83
2022-12-25T18:54:49.731Z,43.67
2022-12-25T18:57:20.462Z,46.63
2022-12-25T18:59:49.057Z,47.30
2022-12-25T19:02:19.262Z,43.70
2022-12-25T19:04:48.046Z,43.03
2022-12-25T19:07:17.659Z,44.43
2022-12-25T19:09:47.888Z,43.50
2022-12-25T19:12:17.886Z,44.03
2022-12-25T19:14:46.997Z,57.53
2022-12-25T19:17:18.929Z,56.80
2022-12-25T19:19:48.286Z,55.37
2022-12-25T19:22:17.067Z,54.40
2022-12-25T19:24:45.963Z,53.90
2022-12-25T19:27:14.539Z,52.97
2022-12-25T19:29:43.255Z,53.23
2022-12-25T19:32:11.974Z,53.87
2022-12-25T19:34:41.942Z,52.70
2022-12-25T19:37:10.570Z,52.03
2022-12-25T19:39:41.397Z,49.07
2022-12-25T19:42:10.324Z,49.37
2022-12-25T19:44:38.905Z,48.00
2022-12-25T19:47:07.708Z,47.53
2022-12-25T19:49:36.330Z,50.00
2022-12-25T19:52:06.769Z,48.53
2022-12-25T19:54:35.561Z,49.17
2022-12-25T19:57:04.090Z,52.77
2022-12-25T19:59:32.674Z,55.50
2022-12-25T20:02:01.457Z,54.23
2022-12-25T20:04:30.650Z,52.83
2022-12-25T20:06:59.280Z,52.53
2022-12-25T20:09:30.603Z,50.93
2022-12-25T20:11:59.661Z,48.77
2022-12-25T20:14:28.241Z,51.77
2022-12-25T20:16:56.907Z,51.30
2022-12-25T20:19:25.783Z,48.83
2022-12-25T20:21:55.411Z,49.20
2022-12-25T20:24:24.784Z,50.60
2022-12-25T20:26:58.969Z,49.20
2022-12-25T20:29:28.300Z,48.33
2022-12-25T20:31:57.017Z,46.43
2022-12-25T20:34:25.602Z,46.77
2022-12-25T20:36:56.521Z,51.67
2022-12-25T20:39:25.111Z,50.40
2022-12-25T20:41:55.111Z,51.27
2022-12-25T20:44:23.700Z,50.03
2022-12-25T20:46:52.233Z,54.77
2022-12-25T20:49:20.791Z,51.50
2022-12-25T20:51:49.331Z,58.83
2022-12-25T20:54:17.870Z,51.90
2022-12-25T20:56:46.446Z,55.60
2022-12-25T20:59:17.124Z,52.73
2022-12-25T21:01:45.732Z,43.90
2022-12-25T21:04:16.658Z,44.03
2022-12-25T21:06:45.347Z,42.63
2022-12-25T21:09:13.973Z,41.47
2022-12-25T21:11:42.841Z,40.40
2022-12-25T21:14:11.595Z,40.87
2022-12-25T21:16:41.552Z,41.07
2022-12-25T21:19:10.130Z,35.87
2022-12-25T21:21:42.826Z,33.17
2022-12-25T21:24:12.809Z,29.33
2022-12-25T21:26:47.633Z,28.93
2022-12-25T21:29:21.440Z,29.27
2022-12-25T21:32:09.316Z,27.73
2022-12-25T21:34:38.217Z,26.77
2022-12-25T21:37:07.402Z,27.47
2022-12-25T21:39:37.100Z,30.37
2022-12-25T21:42:08.081Z,30.50
2022-12-25T21:44:36.920Z,28.30
2022-12-25T21:47:07.050Z,32.10
2022-12-25T21:49:52.893Z,29.03
2022-12-25T21:52:21.545Z,26.60
2022-12-25T21:54:52.923Z,26.97
2022-12-25T21:57:21.865Z,26.47
2022-12-25T21:59:51.517Z,27.53
2022-12-25T22:02:21.810Z,24.37
2022-12-25T22:04:50.566Z,23.50
2022-12-25T22:07:18.049Z,23.00
2022-12-25T22:09:47.742Z,22.57
2022-12-25T22:12:35.270Z,27.37
2022-12-25T22:15:06.809Z,26.23
2022-12-25T22:17:56.286Z,24.27
2022-12-25T22:20:27.191Z,22.93
2022-12-25T22:22:55.987Z,21.20
2022-12-25T22:25:25.419Z,21.83
2022-12-25T22:27:54.745Z,21.90
2022-12-25T22:30:26.505Z,20.30
2022-12-25T22:32:57.008Z,21.43
2022-12-25T22:35:26.332Z,22.20
2022-12-25T22:37:55.249Z,22.10
2022-12-25T22:40:23.882Z,20.87
2022-12-25T22:42:56.020Z,22.50
2022-12-25T22:45:24.669Z,22.40
2022-12-25T22:47:53.262Z,21.53
2022-12-25T22:50:23.327Z,23.40
2022-12-25T22:52:51.997Z,27.30
2022-12-25T22:55:20.776Z,28.67
2022-12-25T22:57:50.515Z,29.13
2022-12-25T23:00:19.174Z,29.60
2022-12-25T23:02:48.166Z,29.77
2022-12-25T23:05:17.035Z,32.20
2022-12-25T23:07:47.091Z,32.13
2022-12-25T23:10:15.689Z,31.33
2022-12-25T23:13:01.888Z,32.60
2022-12-25T23:15:30.480Z,32.87
2022-12-25T23:18:16.261Z,36.50
2022-12-25T23:21:02.629Z,40.93
2022-12-25T23:23:50.448Z,42.87
2022-12-25T23:26:20.348Z,43.87
2022-12-25T23:29:06.665Z,47.57
2022-12-25T23:31:38.068Z,46.63
2022-12-25T23:34:07.988Z,47.27
2022-12-25T23:36:37.115Z,46.37
2022-12-25T23:39:09.949Z,46.70
2022-12-25T23:41:39.688Z,47.47
2022-12-25T23:44:08.379Z,47.23
2022-12-25T23:46:37.327Z,52.27
2022-12-25T23:49:06.193Z,48.27
2022-12-25T23:51:36.774Z,50.20
2022-12-25T23:54:07.502Z,47.83
2022-12-25T23:56:36.401Z,46.93
2022-12-25T23:59:05.161Z,45.00
